createdAt,value
2023-04-29T00:00:42.110Z,78.51
2023-04-29T00:02:43.998Z,77.90
2023-04-29T00:04:45.955Z,77.80
2023-04-29T00:06:47.579Z,77.56
2023-04-29T00:08:49.671Z,77.83
2023-04-29T00:10:53.685Z,78.03
2023-04-29T00:12:56.496Z,78.04
2023-04-29T00:14:59.578Z,77.58
2023-04-29T00:17:01.354Z,77.16
2023-04-29T00:19:02.982Z,77.14
2023-04-29T00:21:04.703Z,77.31
2023-04-29T00:23:06.472Z,77.25
2023-04-29T00:25:09.130Z,77.40
2023-04-29T00:27:10.713Z,77.87
2023-04-29T00:29:14.787Z,77.69
2023-04-29T00:31:17.717Z,77.53
2023-04-29T00:33:19.631Z,76.59
2023-04-29T00:35:21.396Z,76.43
2023-04-29T00:37:22.912Z,76.31
2023-04-29T00:39:24.611Z,76.27
2023-04-29T00:41:26.292Z,76.58
2023-04-29T00:43:27.852Z,76.26
2023-04-29T00:45:29.930Z,76.67
2023-04-29T00:47:32.890Z,76.80
2023-04-29T00:49:34.472Z,76.67
2023-04-29T00:51:37.095Z,76.41
2023-04-29T00:53:39.230Z,76.16
2023-04-29T00:55:41.444Z,76.50
2023-04-29T00:57:43.325Z,76.10
2023-04-29T00:59:44.929Z,76.31
2023-04-29T01:03:54.675Z,75.57
2023-04-29T01:06:06.910Z,76.12
2023-04-29T01:08:24.746Z,75.49
2023-04-29T01:10:28.683Z,75.47
2023-04-29T01:12:37.238Z,74.96
2023-04-29T01:14:39.774Z,74.81
2023-04-29T01:16:48.122Z,74.98
2023-04-29T01:18:56.142Z,74.93
2023-04-29T01:20:58.600Z,75.40
2023-04-29T01:23:00.268Z,75.53
2023-04-29T01:25:03.309Z,75.22
2023-04-29T01:27:14.281Z,74.64
2023-04-29T01:29:26.864Z,74.74
2023-04-29T01:31:32.595Z,74.88
2023-04-29T01:33:44.660Z,74.77
2023-04-29T01:36:00.327Z,75.38
2023-04-29T01:38:11.865Z,74.87
2023-04-29T01:40:19.788Z,74.96
2023-04-29T01:42:29.912Z,75.30
2023-04-29T01:44:33.873Z,74.78
2023-04-29T01:46:35.939Z,74.91
2023-04-29T01:48:37.826Z,74.72
2023-04-29T01:50:39.458Z,75.12
2023-04-29T01:52:41.328Z,75.52
2023-04-29T01:54:42.949Z,75.54
2023-04-29T01:56:46.002Z,75.70
2023-04-29T01:58:47.603Z,75.35
2023-04-29T02:00:49.278Z,75.19
2023-04-29T02:02:51.036Z,74.82
2023-04-29T02:04:52.831Z,74.88
2023-04-29T02:06:54.695Z,74.73
2023-04-29T02:08:56.500Z,74.14
2023-04-29T02:10:59.385Z,73.70
2023-04-29T02:13:02.436Z,73.58
2023-04-29T02:15:04.568Z,72.99
2023-04-29T02:17:06.557Z,71.59
2023-04-29T02:19:08.182Z,71.09
2023-04-29T02:21:09.918Z,70.87
2023-04-29T02:23:11.548Z,70.49
2023-04-29T02:25:13.291Z,69.94
2023-04-29T02:27:15.087Z,71.16
2023-04-29T02:29:18.113Z,70.29
2023-04-29T02:31:19.785Z,69.47
2023-04-29T02:33:21.521Z,70.17
2023-04-29T02:35:23.119Z,69.60
2023-04-29T02:37:25.498Z,69.21
2023-04-29T02:39:27.093Z,69.25
2023-04-29T02:41:28.681Z,68.88
2023-04-29T02:43:30.429Z,68.72
2023-04-29T02:45:33.550Z,68.46
2023-04-29T02:47:35.275Z,68.10
2023-04-29T02:49:37.754Z,67.47
2023-04-29T02:51:39.312Z,68.23
2023-04-29T02:53:40.965Z,67.19
2023-04-29T02:55:43.661Z,67.47
2023-04-29T02:57:45.323Z,67.51
2023-04-29T02:59:46.989Z,66.69
2023-04-29T03:01:50.502Z,66.37
2023-04-29T03:03:52.274Z,66.41
2023-04-29T03:05:54.372Z,66.23
2023-04-29T03:07:58.486Z,66.30
2023-04-29T03:10:00.145Z,66.43
2023-04-29T03:12:01.799Z,66.60
2023-04-29T03:14:03.456Z,67.13
2023-04-29T03:16:06.867Z,66.99
2023-04-29T03:18:09.928Z,66.90
2023-04-29T03:20:12.612Z,67.30
2023-04-29T03:22:14.284Z,66.93
2023-04-29T03:24:16.902Z,66.22
2023-04-29T03:26:18.605Z,66.61
2023-04-29T03:28:20.699Z,67.01
2023-04-29T03:30:22.361Z,66.91
2023-04-29T03:32:24.250Z,67.32
2023-04-29T03:34:27.240Z,65.85
2023-04-29T03:36:29.465Z,65.51
2023-04-29T03:38:37.024Z,66.19
2023-04-29T03:40:39.201Z,65.70
2023-04-29T03:42:40.906Z,65.57
2023-04-29T03:44:42.667Z,65.58
2023-04-29T03:46:46.334Z,65.21
2023-04-29T03:48:47.918Z,65.06
2023-04-29T03:50:51.256Z,64.70
2023-04-29T03:52:52.930Z,65.48
2023-04-29T03:54:54.593Z,65.11
2023-04-29T03:56:58.596Z,64.50
2023-04-29T03:59:00.169Z,65.18
2023-04-29T04:01:01.855Z,64.96
2023-04-29T04:03:05.490Z,65.64
2023-04-29T04:05:08.108Z,66.03
2023-04-29T04:07:11.206Z,65.34
2023-04-29T04:09:12.769Z,66.73
2023-04-29T04:11:14.438Z,66.71
2023-04-29T04:13:16.520Z,66.58
2023-04-29T04:15:18.248Z,67.13
2023-04-29T04:17:20.100Z,67.20
2023-04-29T04:19:21.813Z,67.36
2023-04-29T04:21:23.473Z,67.34
2023-04-29T04:23:26.520Z,66.89
2023-04-29T04:25:28.179Z,66.67
2023-04-29T04:27:29.790Z,66.77
2023-04-29T04:29:31.534Z,67.44
2023-04-29T04:31:33.243Z,67.58
2023-04-29T04:33:36.458Z,67.59
2023-04-29T04:35:38.410Z,68.03
2023-04-29T04:37:40.114Z,67.65
2023-04-29T04:39:43.514Z,67.12
2023-04-29T04:41:45.408Z,67.18
2023-04-29T04:43:48.012Z,66.09
2023-04-29T04:45:49.795Z,66.11
2023-04-29T04:47:51.419Z,67.05
2023-04-29T04:49:53.258Z,65.95
2023-04-29T04:51:55.460Z,65.20
2023-04-29T04:53:57.091Z,65.94
2023-04-29T04:56:02.531Z,65.51
2023-04-29T04:58:04.418Z,65.26
2023-04-29T05:00:07.275Z,65.63
2023-04-29T05:02:08.984Z,66.01
2023-04-29T05:04:10.642Z,65.95
2023-04-29T05:06:12.303Z,65.55
2023-04-29T05:08:13.920Z,66.07
2023-04-29T05:10:15.546Z,65.56
2023-04-29T05:12:18.465Z,65.57
2023-04-29T05:14:20.124Z,66.17
2023-04-29T05:16:21.833Z,66.02
2023-04-29T05:18:23.572Z,65.28
2023-04-29T05:20:25.350Z,65.87
2023-04-29T05:22:26.940Z,65.27
2023-04-29T05:24:28.560Z,65.03
2023-04-29T05:26:30.160Z,65.42
2023-04-29T05:28:33.197Z,66.02
2023-04-29T05:30:35.009Z,65.13
2023-04-29T05:32:39.808Z,66.20
2023-04-29T05:34:41.472Z,65.31
2023-04-29T05:36:43.046Z,64.63
2023-04-29T05:38:44.675Z,64.51
2023-04-29T05:40:46.314Z,64.58
2023-04-29T05:42:47.875Z,63.90
2023-04-29T05:44:50.798Z,62.71
2023-04-29T05:46:52.351Z,62.91
2023-04-29T05:48:54.035Z,63.61
2023-04-29T05:50:56.021Z,64.05
2023-04-29T05:52:57.690Z,64.01
2023-04-29T05:54:59.409Z,64.06
2023-04-29T05:57:01.126Z,64.69
2023-04-29T05:59:05.747Z,65.01
2023-04-29T06:01:08.725Z,66.10
2023-04-29T06:03:10.906Z,64.81
2023-04-29T06:05:12.826Z,64.84
2023-04-29T06:07:14.862Z,65.34
2023-04-29T06:09:27.088Z,65.19
2023-04-29T06:11:29.743Z,64.58
2023-04-29T06:13:32.117Z,65.30
2023-04-29T06:15:33.854Z,65.41
2023-04-29T06:17:37.048Z,64.85
2023-04-29T06:19:38.794Z,65.09
2023-04-29T06:21:40.446Z,65.08
2023-04-29T06:23:42.067Z,64.21
2023-04-29T06:25:43.958Z,64.67
2023-04-29T06:27:45.595Z,64.85
2023-04-29T06:29:47.440Z,64.18
2023-04-29T06:31:49.060Z,64.31
2023-04-29T06:33:52.023Z,64.78
2023-04-29T06:35:53.751Z,64.79
2023-04-29T06:37:55.317Z,64.91
2023-04-29T06:39:56.898Z,64.46
2023-04-29T06:41:58.522Z,64.22
2023-04-29T06:44:00.168Z,64.74
2023-04-29T06:46:01.858Z,64.79
2023-04-29T06:48:03.897Z,63.55
2023-04-29T06:50:07.707Z,63.66
2023-04-29T06:52:09.363Z,63.72
2023-04-29T06:54:10.949Z,63.95
2023-04-29T06:56:12.744Z,63.89
2023-04-29T06:58:14.662Z,64.16
2023-04-29T07:00:16.309Z,63.51
2023-04-29T07:02:17.899Z,63.56
2023-04-29T07:04:19.607Z,64.09
2023-04-29T07:06:22.849Z,64.58
2023-04-29T07:08:24.443Z,64.60
2023-04-29T07:10:26.067Z,64.58
2023-04-29T07:12:27.616Z,63.54
2023-04-29T07:14:29.190Z,65.28
2023-04-29T07:16:30.798Z,63.49
2023-04-29T07:18:32.401Z,62.31
2023-04-29T07:20:36.515Z,62.80
2023-04-29T07:22:39.535Z,60.23
2023-04-29T07:24:41.215Z,59.85
2023-04-29T07:26:44.027Z,58.22
2023-04-29T07:28:45.870Z,56.31
2023-04-29T07:30:47.555Z,55.83
2023-04-29T07:32:49.307Z,56.12
2023-04-29T07:34:51.332Z,56.18
2023-04-29T07:36:53.189Z,56.24
2023-04-29T07:38:56.195Z,56.43
2023-04-29T07:40:58.138Z,56.13
2023-04-29T07:42:59.728Z,55.92
2023-04-29T07:45:01.404Z,56.16
2023-04-29T07:47:03.084Z,56.43
2023-04-29T07:49:04.884Z,55.93
2023-04-29T07:51:06.613Z,56.81
2023-04-29T07:53:08.424Z,56.43
2023-04-29T07:55:11.469Z,55.72
2023-04-29T07:57:13.030Z,55.38
2023-04-29T07:59:14.846Z,54.89
2023-04-29T08:01:16.389Z,55.93
2023-04-29T08:03:18.106Z,55.71
2023-04-29T08:05:20.249Z,55.04
2023-04-29T08:07:22.162Z,55.42
2023-04-29T08:09:23.835Z,55.91
2023-04-29T08:11:27.148Z,55.71
2023-04-29T08:13:30.003Z,55.37
2023-04-29T08:15:31.621Z,56.91
2023-04-29T08:17:33.220Z,56.87
2023-04-29T08:19:34.940Z,56.23
2023-04-29T08:21:36.853Z,56.38
2023-04-29T08:23:38.883Z,57.07
2023-04-29T08:25:41.646Z,56.35
2023-04-29T08:27:44.609Z,55.99
2023-04-29T08:29:46.155Z,55.32
2023-04-29T08:31:47.770Z,55.78
2023-04-29T08:33:49.444Z,55.92
2023-04-29T08:35:57.942Z,56.31
2023-04-29T08:37:59.537Z,56.22
2023-04-29T08:40:01.195Z,55.36
2023-04-29T08:42:08.236Z,55.51
2023-04-29T08:44:11.256Z,55.74
2023-04-29T08:46:15.894Z,56.33
2023-04-29T08:48:18.321Z,56.05
2023-04-29T08:50:20.269Z,56.01
2023-04-29T08:52:22.038Z,56.52
2023-04-29T08:54:23.700Z,56.50
2023-04-29T08:56:27.835Z,55.96
2023-04-29T08:58:34.153Z,56.74
2023-04-29T09:00:38.004Z,55.67
2023-04-29T09:02:45.045Z,56.51
2023-04-29T09:04:53.140Z,56.84
2023-04-29T09:06:56.852Z,55.31
2023-04-29T09:08:59.786Z,54.86
2023-04-29T09:11:01.503Z,55.52
2023-04-29T09:13:03.104Z,55.40
2023-04-29T09:15:05.536Z,54.66
2023-04-29T09:17:08.475Z,54.64
2023-04-29T09:19:10.086Z,54.45
2023-04-29T09:21:17.768Z,54.38
2023-04-29T09:23:20.101Z,54.65
2023-04-29T09:25:22.642Z,55.22
2023-04-29T09:27:27.596Z,54.91
2023-04-29T09:29:29.295Z,54.69
2023-04-29T09:31:30.960Z,53.97
2023-04-29T09:33:49.888Z,53.87
2023-04-29T09:35:51.475Z,55.25
2023-04-29T09:37:53.433Z,55.59
2023-04-29T09:39:55.086Z,54.69
2023-04-29T09:42:02.568Z,57.43
2023-04-29T09:44:04.750Z,54.05
2023-04-29T09:46:12.591Z,53.74
2023-04-29T09:48:15.612Z,53.34
2023-04-29T09:50:18.759Z,52.53
2023-04-29T09:52:20.410Z,51.21
2023-04-29T09:54:23.116Z,52.11
2023-04-29T09:56:24.729Z,57.08
2023-04-29T09:58:28.667Z,52.87
2023-04-29T10:00:32.201Z,53.64
2023-04-29T10:02:34.225Z,53.16
2023-04-29T10:04:40.105Z,53.86
2023-04-29T10:06:44.578Z,53.02
2023-04-29T10:08:47.705Z,52.52
2023-04-29T10:10:49.777Z,52.95
2023-04-29T10:12:53.607Z,55.99
2023-04-29T10:15:02.486Z,54.91
2023-04-29T10:17:15.159Z,54.59
2023-04-29T10:19:24.877Z,53.32
2023-04-29T10:21:29.438Z,51.54
2023-04-29T10:23:33.550Z,51.11
2023-04-29T10:25:37.450Z,49.80
2023-04-29T10:27:42.034Z,50.85
2023-04-29T10:29:45.180Z,51.56
2023-04-29T10:31:48.700Z,52.05
2023-04-29T10:33:51.619Z,52.31
2023-04-29T10:35:55.394Z,53.57
2023-04-29T10:38:01.560Z,54.23
2023-04-29T10:40:12.111Z,54.49
2023-04-29T10:42:26.190Z,53.79
2023-04-29T10:44:27.869Z,54.21
2023-04-29T10:46:29.598Z,52.03
2023-04-29T10:48:34.087Z,52.62
2023-04-29T10:50:41.290Z,51.04
2023-04-29T10:52:52.369Z,50.90
2023-04-29T10:55:02.132Z,49.57
2023-04-29T10:57:05.031Z,50.60
2023-04-29T10:59:10.368Z,51.14
2023-04-29T11:01:13.958Z,50.53
2023-04-29T11:03:50.545Z,49.77
2023-04-29T11:06:08.787Z,49.75
2023-04-29T11:08:10.878Z,53.72
2023-04-29T11:10:13.233Z,54.56
2023-04-29T11:12:20.620Z,52.72
2023-04-29T11:14:24.791Z,49.02
2023-04-29T11:16:26.868Z,49.90
2023-04-29T11:18:28.772Z,49.57
2023-04-29T11:20:31.845Z,49.02
2023-04-29T11:22:33.442Z,48.76
2023-04-29T11:24:35.521Z,50.32
2023-04-29T11:26:44.616Z,48.83
2023-04-29T11:28:47.416Z,48.91
2023-04-29T11:30:50.178Z,49.34
2023-04-29T11:32:51.821Z,49.72
2023-04-29T11:34:53.880Z,49.85
2023-04-29T11:36:57.190Z,52.03
2023-04-29T11:39:00.415Z,53.70
2023-04-29T11:41:02.074Z,54.83
2023-04-29T11:43:03.666Z,54.13
2023-04-29T11:45:06.149Z,52.58
2023-04-29T11:47:07.969Z,54.25
2023-04-29T11:49:09.593Z,53.68
2023-04-29T11:51:11.117Z,53.36
2023-04-29T11:53:14.501Z,50.65
2023-04-29T11:55:16.320Z,48.54
2023-04-29T11:57:17.901Z,49.82
2023-04-29T11:59:19.552Z,48.70
2023-04-29T12:01:21.383Z,49.01
2023-04-29T12:03:23.257Z,48.71
2023-04-29T12:05:26.128Z,47.88
2023-04-29T12:07:27.806Z,48.16
2023-04-29T12:09:43.287Z,48.43
2023-04-29T12:11:45.705Z,48.93
2023-04-29T12:13:47.334Z,48.82
2023-04-29T12:15:50.501Z,49.33
2023-04-29T12:17:52.294Z,49.78
2023-04-29T12:19:54.110Z,49.70
2023-04-29T12:21:58.958Z,49.18
2023-04-29T12:24:02.977Z,49.65
2023-04-29T12:26:06.423Z,49.36
2023-04-29T12:28:12.423Z,49.76
2023-04-29T12:30:14.416Z,48.70
2023-04-29T12:32:17.696Z,48.56
2023-04-29T12:34:25.284Z,48.93
2023-04-29T12:36:28.479Z,48.18
2023-04-29T12:38:31.502Z,48.61
2023-04-29T12:40:33.094Z,48.80
2023-04-29T12:42:36.024Z,49.58
2023-04-29T12:44:37.729Z,48.32
2023-04-29T12:46:41.114Z,47.67
2023-04-29T12:48:42.854Z,47.88
2023-04-29T12:50:49.617Z,47.24
2023-04-29T12:52:51.251Z,47.83
2023-04-29T12:54:53.108Z,48.13
2023-04-29T12:56:54.980Z,47.90
2023-04-29T12:59:05.163Z,48.16
2023-04-29T13:01:06.735Z,46.95
2023-04-29T13:03:08.624Z,47.83
2023-04-29T13:05:10.375Z,48.69
2023-04-29T13:07:11.994Z,47.84
2023-04-29T13:09:18.534Z,48.02
2023-04-29T13:11:20.641Z,48.46
2023-04-29T13:13:22.305Z,47.61
2023-04-29T13:15:25.420Z,46.90
2023-04-29T13:17:27.044Z,47.56
2023-04-29T13:19:44.033Z,47.91
2023-04-29T13:21:57.785Z,47.15
2023-04-29T13:23:59.475Z,50.40
2023-04-29T13:26:01.178Z,50.22
2023-04-29T13:28:03.106Z,52.51
2023-04-29T13:30:05.706Z,52.44
2023-04-29T13:32:08.769Z,50.69
2023-04-29T13:34:10.638Z,50.37
2023-04-29T13:36:12.238Z,49.06
2023-04-29T13:38:13.806Z,50.70
2023-04-29T13:40:20.662Z,51.83
2023-04-29T13:42:26.173Z,50.04
2023-04-29T13:44:36.084Z,48.53
2023-04-29T13:46:47.708Z,48.59
2023-04-29T13:58:12.340Z,50.45
2023-04-29T13:59:44.744Z,47.00
2023-04-29T14:03:56.031Z,47.01
2023-04-29T14:05:57.805Z,47.13
2023-04-29T14:07:59.497Z,46.48
2023-04-29T14:10:01.172Z,47.43
2023-04-29T14:12:02.846Z,47.86
2023-04-29T14:14:04.411Z,47.45
2023-04-29T14:16:06.669Z,47.73
2023-04-29T14:18:08.434Z,48.57
2023-04-29T14:20:12.762Z,46.72
2023-04-29T14:22:14.761Z,45.68
2023-04-29T14:24:16.381Z,46.12
2023-04-29T14:28:23.468Z,46.39
2023-04-29T14:30:25.444Z,46.67
2023-04-29T14:32:27.354Z,47.53
2023-04-29T14:34:29.039Z,48.30
2023-04-29T14:36:36.507Z,47.38
2023-04-29T14:38:41.254Z,46.66
2023-04-29T14:40:43.220Z,46.70
2023-04-29T14:42:45.056Z,45.63
2023-04-29T14:44:48.332Z,44.93
2023-04-29T14:46:51.320Z,45.39
2023-04-29T14:48:53.113Z,45.79
2023-04-29T14:50:54.873Z,46.62
2023-04-29T14:52:57.875Z,46.68
2023-04-29T14:54:59.560Z,46.84
2023-04-29T14:57:01.274Z,47.57
2023-04-29T14:59:05.251Z,45.64
2023-04-29T15:01:06.945Z,46.22
2023-04-29T15:03:10.326Z,46.81
2023-04-29T15:05:12.538Z,47.35
2023-04-29T15:07:15.197Z,45.47
2023-04-29T15:09:18.471Z,44.69
2023-04-29T15:11:20.090Z,44.76
2023-04-29T15:13:21.764Z,45.25
2023-04-29T15:15:23.778Z,46.17
2023-04-29T15:17:25.438Z,45.98
2023-04-29T15:19:28.345Z,46.52
2023-04-29T15:21:29.989Z,45.79
2023-04-29T15:23:31.514Z,46.81
2023-04-29T15:25:36.160Z,45.10
2023-04-29T15:27:38.343Z,44.79
2023-04-29T15:29:39.899Z,45.07
2023-04-29T15:31:41.834Z,44.67
2023-04-29T15:33:43.570Z,44.88
2023-04-29T15:35:45.214Z,45.35
2023-04-29T15:37:47.221Z,45.89
2023-04-29T15:39:48.910Z,46.58
2023-04-29T15:41:51.920Z,46.91
2023-04-29T15:43:53.917Z,46.11
2023-04-29T15:45:55.805Z,46.13
2023-04-29T15:47:57.714Z,46.67
2023-04-29T15:49:59.318Z,46.94
2023-04-29T15:52:00.981Z,46.83
2023-04-29T15:54:02.587Z,46.57
2023-04-29T15:56:05.462Z,47.44
2023-04-29T15:58:08.434Z,46.84
2023-04-29T16:00:11.453Z,47.01
2023-04-29T16:02:13.398Z,46.74
2023-04-29T16:04:15.153Z,46.45
2023-04-29T16:06:17.270Z,47.30
2023-04-29T16:08:19.871Z,47.25
2023-04-29T16:10:21.712Z,47.23
2023-04-29T16:12:23.363Z,47.74
2023-04-29T16:14:27.533Z,47.07
2023-04-29T16:16:30.606Z,46.53
2023-04-29T16:18:32.267Z,46.89
2023-04-29T16:20:33.954Z,47.20
2023-04-29T16:22:35.547Z,47.59
2023-04-29T16:24:37.275Z,47.18
2023-04-29T16:26:39.114Z,46.85
2023-04-29T16:28:40.971Z,47.95
2023-04-29T16:30:43.933Z,47.26
2023-04-29T16:32:45.575Z,47.16
2023-04-29T16:34:47.324Z,46.63
2023-04-29T16:36:49.018Z,47.08
2023-04-29T16:38:51.052Z,46.97
2023-04-29T16:40:53.168Z,47.44
2023-04-29T16:42:54.778Z,48.30
2023-04-29T16:44:56.500Z,46.80
2023-04-29T16:46:59.984Z,47.23
2023-04-29T16:49:01.682Z,47.45
2023-04-29T16:51:04.549Z,47.79
2023-04-29T16:53:06.894Z,47.79
2023-04-29T16:55:08.918Z,48.32
2023-04-29T16:57:10.565Z,48.84
2023-04-29T16:59:12.147Z,48.62
2023-04-29T17:01:14.376Z,47.95
2023-04-29T17:03:19.957Z,47.96
2023-04-29T17:05:21.859Z,47.85
2023-04-29T17:07:23.580Z,48.49
2023-04-29T17:09:25.250Z,48.47
2023-04-29T17:11:28.192Z,48.31
2023-04-29T17:13:32.105Z,48.37
2023-04-29T17:15:34.407Z,49.06
2023-04-29T17:17:36.316Z,48.22
2023-04-29T17:19:40.394Z,48.60
2023-04-29T17:21:42.272Z,48.63
2023-04-29T17:23:44.205Z,48.30
2023-04-29T17:25:45.898Z,48.72
2023-04-29T17:27:47.835Z,48.90
2023-04-29T17:29:49.527Z,49.18
2023-04-29T17:31:51.684Z,49.11
2023-04-29T17:33:53.481Z,49.39
2023-04-29T17:35:56.566Z,50.31
2023-04-29T17:38:00.705Z,49.90
2023-04-29T17:40:02.726Z,49.45
2023-04-29T17:42:04.409Z,49.61
2023-04-29T17:44:06.354Z,49.75
2023-04-29T17:46:08.040Z,49.53
2023-04-29T17:48:09.659Z,49.87
2023-04-29T17:50:11.589Z,50.07
2023-04-29T17:52:14.569Z,49.86
2023-04-29T17:54:16.442Z,50.07
2023-04-29T17:56:18.069Z,50.41
2023-04-29T17:58:20.165Z,50.42
2023-04-29T18:00:22.357Z,49.64
2023-04-29T18:02:24.230Z,50.62
2023-04-29T18:04:26.317Z,50.52
2023-04-29T18:06:28.597Z,50.90
2023-04-29T18:08:31.605Z,51.36
2023-04-29T18:10:33.208Z,51.22
2023-04-29T18:12:35.557Z,51.16
2023-04-29T18:14:37.147Z,51.24
2023-04-29T18:16:38.918Z,51.41
2023-04-29T18:18:40.867Z,51.46
2023-04-29T18:20:44.622Z,51.67
2023-04-29T18:22:46.259Z,51.21
2023-04-29T18:24:49.505Z,51.07
2023-04-29T18:26:52.372Z,50.89
2023-04-29T18:28:57.581Z,50.69
2023-04-29T18:30:59.278Z,50.69
2023-04-29T18:33:01.189Z,50.48
2023-04-29T18:35:02.910Z,49.31
2023-04-29T18:37:05.174Z,48.72
2023-04-29T18:39:06.736Z,48.78
2023-04-29T18:41:10.391Z,48.22
2023-04-29T18:43:15.427Z,48.79
2023-04-29T18:45:17.067Z,48.35
2023-04-29T18:47:19.041Z,48.96
2023-04-29T18:49:20.730Z,48.63
2023-04-29T18:51:24.376Z,48.69
2023-04-29T18:53:26.257Z,48.57
2023-04-29T18:55:28.039Z,48.56
2023-04-29T18:57:31.127Z,49.05
2023-04-29T18:59:32.687Z,48.36
2023-04-29T19:01:34.989Z,48.70
2023-04-29T19:03:36.834Z,49.72
2023-04-29T19:05:38.454Z,49.36
2023-04-29T19:07:40.039Z,49.66
2023-04-29T19:09:42.283Z,50.37
2023-04-29T19:11:43.925Z,50.57
2023-04-29T19:13:46.932Z,50.82
2023-04-29T19:15:51.329Z,50.70
2023-04-29T19:17:53.266Z,50.14
2023-04-29T19:19:55.502Z,50.15
2023-04-29T19:21:57.779Z,50.24
2023-04-29T19:23:59.403Z,49.89
2023-04-29T19:26:03.388Z,50.10
2023-04-29T19:28:05.476Z,50.21
2023-04-29T19:30:09.807Z,50.46
2023-04-29T19:32:12.068Z,50.39
2023-04-29T19:34:13.856Z,50.63
2023-04-29T19:36:15.467Z,50.15
2023-04-29T19:38:17.096Z,50.96
2023-04-29T19:40:19.207Z,50.50
2023-04-29T19:42:20.866Z,50.57
2023-04-29T19:44:25.547Z,50.99
2023-04-29T19:46:28.599Z,50.77
2023-04-29T19:48:31.465Z,52.04
2023-04-29T19:50:33.132Z,52.09
2023-04-29T19:52:35.054Z,52.23
2023-04-29T19:54:36.757Z,52.44
2023-04-29T19:56:38.587Z,52.06
2023-04-29T19:58:40.204Z,51.79
2023-04-29T20:00:41.805Z,51.84
2023-04-29T20:02:45.348Z,51.49
2023-04-29T20:04:47.700Z,51.61
2023-04-29T20:06:49.477Z,51.94
2023-04-29T20:08:52.741Z,50.99
2023-04-29T20:10:55.109Z,51.48
2023-04-29T20:12:57.223Z,51.68
2023-04-29T20:14:59.075Z,51.99
2023-04-29T20:17:00.982Z,51.53
2023-04-29T20:19:04.424Z,52.22
2023-04-29T20:21:06.385Z,51.55
2023-04-29T20:23:08.114Z,52.36
2023-04-29T20:25:10.497Z,52.64
2023-04-29T20:27:13.549Z,52.29
2023-04-29T20:29:15.213Z,52.31
2023-04-29T20:31:16.873Z,52.01
2023-04-29T20:33:19.300Z,52.17
2023-04-29T20:35:22.483Z,52.36
2023-04-29T20:37:24.223Z,52.14
2023-04-29T20:39:25.993Z,52.04
2023-04-29T20:41:27.905Z,52.06
2023-04-29T20:43:32.011Z,52.69
2023-04-29T20:45:33.944Z,52.16
2023-04-29T20:47:35.597Z,51.85
2023-04-29T20:49:40.071Z,52.97
2023-04-29T20:51:43.082Z,53.05
2023-04-29T20:53:44.896Z,53.74
2023-04-29T20:55:46.521Z,53.22
2023-04-29T20:57:48.969Z,54.09
2023-04-29T20:59:51.163Z,53.77
2023-04-29T21:01:53.189Z,53.40
2023-04-29T21:03:54.942Z,53.03
2023-04-29T21:05:57.069Z,53.36
2023-04-29T21:08:01.777Z,52.77
2023-04-29T21:10:03.996Z,52.35
2023-04-29T21:12:06.065Z,52.60
2023-04-29T21:14:07.927Z,52.20
2023-04-29T21:16:09.962Z,51.82
2023-04-29T21:18:14.832Z,51.73
2023-04-29T21:20:17.296Z,51.73
2023-04-29T21:22:18.972Z,50.75
2023-04-29T21:24:22.977Z,50.84
2023-04-29T21:26:24.656Z,50.48
2023-04-29T21:28:27.808Z,50.50
2023-04-29T21:30:29.393Z,49.80
2023-04-29T21:32:31.010Z,50.07
2023-04-29T21:34:32.666Z,50.51
2023-04-29T21:36:34.342Z,50.70
2023-04-29T21:38:36.279Z,50.13
2023-04-29T21:40:41.822Z,50.96
2023-04-29T21:42:44.041Z,50.86
2023-04-29T21:44:46.049Z,51.41
2023-04-29T21:46:47.853Z,51.16
2023-04-29T21:48:49.575Z,51.06
2023-04-29T21:50:51.139Z,50.81
2023-04-29T21:52:54.302Z,50.47
2023-04-29T21:54:55.946Z,50.85
2023-04-29T21:56:59.298Z,51.07
2023-04-29T21:59:00.963Z,51.10
2023-04-29T22:01:03.168Z,51.45
2023-04-29T22:03:06.719Z,51.42
2023-04-29T22:05:09.613Z,51.36
2023-04-29T22:07:11.268Z,51.31
2023-04-29T22:09:12.949Z,50.67
2023-04-29T22:11:15.241Z,50.90
2023-04-29T22:13:20.963Z,50.87
2023-04-29T22:15:28.857Z,50.83
2023-04-29T22:17:34.420Z,50.73
2023-04-29T22:19:37.048Z,50.84
2023-04-29T22:21:38.676Z,50.67
2023-04-29T22:23:40.562Z,50.63
2023-04-29T22:25:42.232Z,50.42
2023-04-29T22:27:46.567Z,50.76
2023-04-29T22:29:49.619Z,51.19
2023-04-29T22:31:54.224Z,50.47
2023-04-29T22:33:56.402Z,50.70
2023-04-29T22:35:58.319Z,50.54
2023-04-29T22:38:00.120Z,50.62
2023-04-29T22:40:02.170Z,50.75
2023-04-29T22:42:04.338Z,51.12
2023-04-29T22:44:06.504Z,50.94
2023-04-29T22:46:10.775Z,50.97
2023-04-29T22:48:12.442Z,50.54
2023-04-29T22:50:14.815Z,51.02
2023-04-29T22:52:16.440Z,50.83
2023-04-29T22:54:18.063Z,50.87
2023-04-29T22:56:20.055Z,50.54
2023-04-29T22:58:24.377Z,50.91
2023-04-29T23:00:26.282Z,50.16
2023-04-29T23:02:30.036Z,50.33
2023-04-29T23:04:33.049Z,50.59
2023-04-29T23:06:36.346Z,50.73
2023-04-29T23:08:38.230Z,50.47
2023-04-29T23:10:42.016Z,50.43
2023-04-29T23:12:43.620Z,50.71
2023-04-29T23:14:45.208Z,50.76
2023-04-29T23:16:46.832Z,50.69
2023-04-29T23:18:51.118Z,50.95
2023-04-29T23:20:53.030Z,50.72
2023-04-29T23:22:54.869Z,50.98
2023-04-29T23:24:56.532Z,50.83
2023-04-29T23:26:59.148Z,50.70
2023-04-29T23:29:01.539Z,51.00
2023-04-29T23:31:03.295Z,50.84
2023-04-29T23:33:05.253Z,50.74
2023-04-29T23:35:09.896Z,50.96
2023-04-29T23:37:11.442Z,51.22
2023-04-29T23:39:14.542Z,50.92
2023-04-29T23:41:16.615Z,50.77
2023-04-29T23:43:18.279Z,50.88
2023-04-29T23:45:19.898Z,51.52
2023-04-29T23:47:21.628Z,51.11
2023-04-29T23:49:23.314Z,51.31
2023-04-29T23:51:26.280Z,51.88
2023-04-29T23:53:29.582Z,51.15
2023-04-29T23:55:31.297Z,51.34
2023-04-29T23:57:33.353Z,51.03
2023-04-29T23:59:35.094Z,50.37
